Time;durP1;ratioP1;P1;durP2;ratioP2;P2;SDS_P1;SDS_P2;PMS_P1;PMS_P2;Temp;Humidity;BMP_temperature;BMP_pressure;BME280_temperature;BME280_humidity;BME280_pressure;Samples;Min_cycle;Max_cycle;Signal;HPM_P1;HPM_P2
2022/03/10 00:03:52;;;;;;;66.33;62.77;;;;;;;11.99;100.00;101635.53;2013188;71;33303;-74
2022/03/10 00:09:37;;;;;;;66.57;63.07;;;;;;;11.88;100.00;101633.84;2015030;71;33398;-76
2022/03/10 00:15:24;;;;;;;67.57;63.83;;;;;;;11.83;100.00;101635.51;2006403;70;32858;-76
2022/03/10 00:21:09;;;;;;;66.90;63.40;;;;;;;11.79;100.00;101637.17;2000273;70;32897;-75
2022/03/10 00:26:53;;;;;;;68.07;64.37;;;;;;;11.81;100.00;101646.06;2000942;71;33275;-78
2022/03/10 00:32:44;;;;;;;66.50;63.00;;;;;;;11.83;100.00;101649.98;2009419;71;32843;-75
2022/03/10 00:38:32;;;;;;;65.27;61.80;;;;;;;11.88;100.00;101650.00;1995302;71;32825;-74
2022/03/10 00:44:16;;;;;;;65.90;62.40;;;;;;;11.79;100.00;101652.48;2004429;71;32889;-72
2022/03/10 00:50:01;;;;;;;67.37;63.50;;;;;;;11.76;100.00;101658.61;2000785;71;32807;-75
2022/03/10 00:55:47;;;;;;;68.83;65.13;;;;;;;11.72;100.00;101664.99;2005505;71;32835;-72
2022/03/10 01:01:31;;;;;;;69.10;65.13;;;;;;;11.67;100.00;101666.33;2018796;71;33333;-77
2022/03/10 01:07:15;;;;;;;67.83;64.03;;;;;;;11.72;100.00;101670.55;1996918;71;32812;-76
2022/03/10 01:13:00;;;;;;;70.17;66.27;;;;;;;11.56;100.00;101668.77;1994706;71;32992;-76
2022/03/10 01:18:45;;;;;;;70.50;66.60;;;;;;;11.54;100.00;101672.39;1998777;71;32838;-76
2022/03/10 01:24:29;;;;;;;74.20;69.97;;;;;;;11.39;100.00;101667.03;2004527;71;32771;-76
2022/03/10 01:30:20;;;;;;;75.37;71.17;;;;;;;11.41;100.00;101675.12;2070100;69;32823;-76
2022/03/10 01:36:05;;;;;;;71.67;67.67;;;;;;;11.55;100.00;101672.09;2016877;71;32907;-75
2022/03/10 01:41:49;;;;;;;69.83;65.90;;;;;;;11.53;100.00;101672.10;2009608;71;32827;-75
2022/03/10 01:47:33;;;;;;;76.07;71.77;;;;;;;11.43;100.00;101677.05;2006140;71;33365;-78
2022/03/10 01:53:18;;;;;;;75.00;70.90;;;;;;;11.33;100.00;101668.13;2005952;71;32843;-74
2022/03/10 01:59:04;;;;;;;72.90;68.90;;;;;;;11.34;100.00;101677.28;2016750;71;32832;-76
2022/03/10 02:04:48;;;;;;;74.67;70.47;;;;;;;11.40;100.00;101678.45;2009460;71;32826;-72
2022/03/10 02:10:35;;;;;;;73.57;69.53;;;;;;;11.34;100.00;101672.56;2016689;71;33308;-73
2022/03/10 02:22:22;;;;;;;72.37;68.37;;;;;;;11.23;100.00;101670.00;2008205;71;32800;-77
2022/03/10 02:28:08;;;;;;;75.33;70.93;;;;;;;11.27;100.00;101675.31;2002641;71;33280;-74
2022/03/10 02:33:55;;;;;;;76.50;72.37;;;;;;;11.06;100.00;101681.86;2014843;71;32839;-75
2022/03/10 02:39:40;;;;;;;74.73;70.23;;;;;;;11.00;100.00;101671.80;2015007;71;32946;-77
2022/03/10 02:45:25;;;;;;;79.90;75.57;;;;;;;10.92;100.00;101655.08;2013275;71;30893;-75
2022/03/10 02:51:09;;;;;;;80.00;75.40;;;;;;;10.99;100.00;101664.59;2004524;71;33280;-77
2022/03/10 02:56:53;;;;;;;79.20;74.73;;;;;;;11.01;100.00;101663.75;1995245;71;32809;-76
2022/03/10 03:02:38;;;;;;;80.07;75.50;;;;;;;10.89;100.00;101659.23;2003893;70;32823;-76
2022/03/10 03:08:21;;;;;;;81.67;76.87;;;;;;;10.88;100.00;101663.66;2009566;71;32835;-73
2022/03/10 03:14:07;;;;;;;79.57;74.97;;;;;;;10.84;100.00;101662.53;2013519;71;32825;-77
2022/03/10 03:19:51;;;;;;;81.13;76.43;;;;;;;10.74;100.00;101645.80;2009884;71;33336;-76
2022/03/10 03:25:36;;;;;;;78.57;74.17;;;;;;;10.73;100.00;101647.73;2016763;71;32967;-77
2022/03/10 03:31:21;;;;;;;82.80;78.00;;;;;;;10.70;100.00;101663.53;2005522;71;32828;-72
2022/03/10 03:37:06;;;;;;;81.67;76.97;;;;;;;10.52;100.00;101657.02;2015036;71;32800;-75
2022/03/10 03:42:50;;;;;;;85.93;80.93;;;;;;;10.11;100.00;101662.70;2017139;71;33304;-76
2022/03/10 03:48:34;;;;;;;83.03;77.97;;;;;;;9.86;100.00;101657.73;2011501;71;32811;-74
2022/03/10 03:54:18;;;;;;;82.80;77.40;;;;;;;9.74;100.00;101661.20;1998505;71;32840;-72
2022/03/10 04:00:03;;;;;;;84.20;79.00;;;;;;;9.79;100.00;101659.04;2002611;71;33260;-77
2022/03/10 04:05:48;;;;;;;88.97;83.67;;;;;;;9.73;100.00;101660.91;1991853;71;33254;-76
2022/03/10 04:11:33;;;;;;;86.87;81.53;;;;;;;9.28;100.00;101670.91;2009293;71;32880;-72
2022/03/10 04:17:17;;;;;;;87.67;81.93;;;;;;;9.24;100.00;101672.48;2015037;71;32969;-75
2022/03/10 04:23:01;;;;;;;86.30;80.60;;;;;;;8.81;100.00;101680.19;2013124;71;32810;-74
2022/03/10 04:28:45;;;;;;;87.00;81.30;;;;;;;8.55;100.00;101683.64;1991772;71;32757;-76
2022/03/10 04:34:30;;;;;;;85.70;80.00;;;;;;;8.76;100.00;101679.27;2018800;71;33306;-71
2022/03/10 04:40:14;;;;;;;89.70;83.90;;;;;;;8.82;100.00;101670.76;2006414;71;32822;-76
2022/03/10 04:45:59;;;;;;;88.30;82.40;;;;;;;8.80;100.00;101674.89;2006061;71;32757;-76
2022/03/10 04:51:43;;;;;;;86.83;80.93;;;;;;;8.51;100.00;101681.08;2013252;71;32796;-76
2022/03/10 04:57:27;;;;;;;81.80;76.17;;;;;;;8.57;100.00;101680.89;2016527;71;32895;-75
2022/03/10 05:03:13;;;;;;;83.63;77.73;;;;;;;8.24;100.00;101691.37;1879471;75;86925;-74
2022/03/10 05:08:55;;;;;;;81.40;75.50;;;;;;;8.00;100.00;101685.65;2014839;71;32856;-72
2022/03/10 05:14:41;;;;;;;81.37;75.63;;;;;;;8.06;100.00;101680.52;2018632;71;32824;-74
2022/03/10 05:20:26;;;;;;;78.73;73.03;;;;;;;8.31;100.00;101687.08;2009825;71;32868;-74
2022/03/10 05:26:11;;;;;;;81.73;75.87;;;;;;;7.99;100.00;101695.06;2015105;71;32830;-76
2022/03/10 05:31:55;;;;;;;76.63;70.93;;;;;;;8.24;100.00;101699.68;2014840;70;32907;-76
2022/03/10 05:37:40;;;;;;;77.60;71.77;;;;;;;8.33;100.00;101696.53;1995154;71;33264;-77
2022/03/10 05:43:26;;;;;;;81.50;75.73;;;;;;;8.46;100.00;101688.75;2007682;71;32895;-73
2022/03/10 05:49:10;;;;;;;79.40;73.43;;;;;;;8.87;100.00;101688.85;2002556;71;33298;-76
2022/03/10 05:54:55;;;;;;;77.17;71.47;;;;;;;9.37;100.00;101686.55;2005660;71;33429;-76
2022/03/10 06:00:39;;;;;;;78.63;72.83;;;;;;;9.43;100.00;101688.27;1995179;71;32781;-76
2022/03/10 06:06:23;;;;;;;77.07;71.17;;;;;;;9.43;100.00;101689.66;2004246;71;32891;-74
2022/03/10 06:12:09;;;;;;;79.90;73.73;;;;;;;9.51;100.00;101690.05;2005826;71;32824;-77
2022/03/10 06:17:54;;;;;;;81.23;75.13;;;;;;;9.35;100.00;101698.42;2010079;71;32762;-76
2022/03/10 06:23:40;;;;;;;80.20;74.00;;;;;;;9.41;100.00;101707.11;2016669;71;32925;-75
2022/03/10 06:29:24;;;;;;;80.83;74.90;;;;;;;9.50;100.00;101715.25;2013131;71;33371;-75
2022/03/10 06:35:11;;;;;;;83.40;77.40;;;;;;;9.82;100.00;101702.91;2009872;71;33303;-76
2022/03/10 06:40:55;;;;;;;80.67;74.67;;;;;;;9.91;100.00;101706.36;2005773;71;33316;-73
2022/03/10 06:46:39;;;;;;;79.97;74.27;;;;;;;9.96;100.00;101707.81;2016998;71;33319;-71
2022/03/10 06:52:24;;;;;;;79.73;73.93;;;;;;;10.04;100.00;101717.61;2000111;71;32818;-71
2022/03/10 06:58:08;;;;;;;81.17;75.20;;;;;;;9.82;100.00;101711.23;2014860;71;33311;-72
2022/03/10 07:03:55;;;;;;;79.10;73.30;;;;;;;9.94;100.00;101711.37;2000545;71;32832;-72
2022/03/10 07:09:38;;;;;;;79.23;73.43;;;;;;;10.27;100.00;101709.56;1996840;71;32868;-68
2022/03/10 07:15:24;;;;;;;79.50;73.87;;;;;;;10.31;100.00;101714.87;2005808;71;32816;-78
2022/03/10 07:21:08;;;;;;;79.80;73.50;;;;;;;10.41;100.00;101728.84;2000874;71;32814;-72
2022/03/10 07:26:52;;;;;;;76.80;71.40;;;;;;;10.60;100.00;101718.20;2009711;71;32887;-72
2022/03/10 07:32:37;;;;;;;79.03;73.30;;;;;;;10.70;100.00;101733.00;1999030;71;32872;-71
2022/03/10 07:38:22;;;;;;;80.37;74.87;;;;;;;10.85;100.00;101722.03;2018638;71;32831;-77
2022/03/10 07:44:07;;;;;;;81.70;75.90;;;;;;;10.76;100.00;101732.50;2014797;71;33294;-70
2022/03/10 07:49:53;;;;;;;82.37;76.77;;;;;;;10.74;100.00;101737.50;2004179;71;32904;-70
2022/03/10 07:55:37;;;;;;;85.47;79.60;;;;;;;10.85;100.00;101746.20;2012867;71;32803;-72
2022/03/10 08:01:22;;;;;;;85.83;79.97;;;;;;;10.73;100.00;101740.83;2009437;71;33306;-71
2022/03/10 08:07:07;;;;;;;86.23;80.40;;;;;;;10.79;100.00;101745.31;2006022;71;32826;-73
2022/03/10 08:12:51;;;;;;;87.30;81.40;;;;;;;10.81;100.00;101750.61;2016831;71;32939;-71
2022/03/10 08:18:35;;;;;;;83.23;77.53;;;;;;;10.77;100.00;101750.86;2009330;71;32898;-76
2022/03/10 08:24:19;;;;;;;84.50;78.73;;;;;;;10.70;100.00;101745.50;2014680;71;33400;-73
2022/03/10 08:30:05;;;;;;;81.03;75.23;;;;;;;11.02;100.00;101738.55;2006393;71;32734;-70
2022/03/10 08:35:49;;;;;;;78.17;72.47;;;;;;;11.53;100.00;101732.77;2008056;71;32868;-74
2022/03/10 08:41:34;;;;;;;80.80;74.60;;;;;;;11.53;100.00;101738.33;2015429;71;33335;-74
2022/03/10 08:47:18;;;;;;;82.07;76.33;;;;;;;11.52;100.00;101741.38;2000251;71;33452;-73
2022/03/10 08:53:03;;;;;;;82.07;76.13;;;;;;;11.43;100.00;101750.78;1996940;71;32819;-72
2022/03/10 08:58:47;;;;;;;80.27;74.23;;;;;;;11.37;100.00;101745.76;2016692;71;32839;-73
2022/03/10 09:04:32;;;;;;;81.13;75.27;;;;;;;11.75;100.00;101736.25;2014975;71;32825;-72
2022/03/10 09:10:15;;;;;;;82.93;77.17;;;;;;;12.21;100.00;101726.66;2016678;71;33558;-72
2022/03/10 09:15:59;;;;;;;78.40;72.50;;;;;;;12.31;100.00;101719.72;2005618;71;32895;-72
2022/03/10 09:21:46;;;;;;;81.60;76.30;;;;;;;12.72;100.00;101720.03;2013690;71;33254;-73
2022/03/10 09:27:31;;;;;;;77.77;72.97;;;;;;;12.83;100.00;101715.87;2004309;71;32934;-73
2022/03/10 09:33:15;;;;;;;80.27;75.17;;;;;;;12.88;100.00;101724.23;2009595;71;32837;-73
2022/03/10 09:39:00;;;;;;;75.77;70.97;;;;;;;12.68;100.00;101727.28;2011787;71;33393;-72
2022/03/10 09:44:47;;;;;;;79.13;73.93;;;;;;;13.09;100.00;101714.73;2004348;71;33497;-73
2022/03/10 09:50:31;;;;;;;76.93;72.03;;;;;;;13.16;100.00;101715.30;2005783;71;33399;-72
2022/03/10 09:56:18;;;;;;;74.43;69.77;;;;;;;13.25;100.00;101716.41;2016787;71;32841;-73
2022/03/10 10:02:04;;;;;;;74.10;69.60;;;;;;;12.96;100.00;101719.48;2016497;71;33339;-71
2022/03/10 10:08:13;;;;;;;74.47;69.87;;;;;;;12.99;100.00;101720.31;1998428;71;32919;-71
2022/03/10 10:13:58;;;;;;;75.40;70.50;;;;;;;13.03;100.00;101715.84;2014678;71;32983;-72
2022/03/10 10:19:44;;;;;;;71.80;67.50;;;;;;;13.21;100.00;101716.70;1995328;71;32853;-74
2022/03/10 10:25:29;;;;;;;72.20;67.60;;;;;;;13.34;100.00;101719.45;2005588;71;32933;-71
2022/03/10 10:31:16;;;;;;;72.47;67.87;;;;;;;13.36;100.00;101718.05;2009934;71;32835;-71
2022/03/10 10:37:14;;;;;;;74.67;70.07;;;;;;;13.29;100.00;101714.72;2008104;71;32847;-70
2022/03/10 10:43:08;;;;;;;76.00;71.50;;;;;;;13.32;100.00;101711.36;2009428;70;32976;-70
2022/03/10 10:48:54;;;;;;;74.53;69.80;;;;;;;13.39;100.00;101711.89;2013270;71;32863;-72
2022/03/10 10:54:49;;;;;;;73.53;68.90;;;;;;;13.41;100.00;101705.48;1996953;71;32785;-72
2022/03/10 11:00:46;;;;;;;72.20;67.70;;;;;;;13.45;100.00;101706.58;2005849;71;33354;-75
2022/03/10 11:06:40;;;;;;;72.67;68.30;;;;;;;13.59;100.00;101700.69;2009311;71;32909;-73
2022/03/10 11:12:27;;;;;;;71.93;67.37;;;;;;;13.82;100.00;101683.81;2016957;71;32959;-72
2022/03/10 11:18:13;;;;;;;74.73;70.23;;;;;;;13.76;100.00;101675.76;2008442;71;33334;-74
2022/03/10 11:24:03;;;;;;;71.83;67.53;;;;;;;13.74;100.00;101675.20;2018972;71;32905;-75
2022/03/10 11:26:36;;;;;;;73.67;69.47;;;;;;;13.69;100.00;101685.86;1975026;72;26811;-75
2022/03/10 11:32:27;;;;;;;70.20;65.83;;;;;;;13.93;100.00;101670.64;2011646;71;32947;-77
2022/03/10 11:38:14;;;;;;;70.20;66.00;;;;;;;13.88;100.00;101665.08;2014830;71;32902;-74
2022/03/10 11:44:02;;;;;;;71.57;67.37;;;;;;;14.05;100.00;101662.75;2014814;71;32840;-74
2022/03/10 11:49:47;;;;;;;69.23;65.33;;;;;;;14.11;100.00;101661.61;1995179;71;33252;-77
2022/03/10 11:55:43;;;;;;;69.87;65.83;;;;;;;14.42;100.00;101663.63;2003965;71;33323;-73
2022/03/10 12:01:29;;;;;;;71.00;67.00;;;;;;;14.27;100.00;101656.18;2006048;71;34431;-77
2022/03/10 12:07:18;;;;;;;67.57;63.57;;;;;;;14.29;100.00;101653.91;1991560;71;33234;-73
2022/03/10 12:13:28;;;;;;;69.30;65.27;;;;;;;14.38;100.00;101644.38;2000455;71;32833;-75
2022/03/10 12:19:12;;;;;;;64.77;60.83;;;;;;;14.53;100.00;101645.67;2000357;71;32849;-75
2022/03/10 12:25:20;;;;;;;71.70;67.50;;;;;;;14.54;100.00;101645.39;2000341;71;32894;-74
2022/03/10 12:31:14;;;;;;;64.07;60.43;;;;;;;14.69;100.00;101630.42;2011786;71;33237;-73
2022/03/10 12:37:02;;;;;;;62.97;59.07;;;;;;;14.78;100.00;101625.02;2006064;71;32824;-74
2022/03/10 12:42:48;;;;;;;65.63;62.03;;;;;;;14.67;100.00;101607.52;2010086;71;33306;-73
2022/03/10 12:48:47;;;;;;;65.27;61.47;;;;;;;14.69;100.00;101608.05;2007588;71;32834;-73
2022/03/10 12:54:40;;;;;;;59.43;56.17;;;;;;;14.95;100.00;101595.47;2009549;71;32818;-72
2022/03/10 13:00:26;;;;;;;58.63;55.57;;;;;;;14.84;100.00;101594.48;2007534;71;32794;-74
2022/03/10 13:06:13;;;;;;;68.17;64.70;;;;;;;14.94;100.00;101592.40;2018632;71;32919;-74
2022/03/10 13:11:59;;;;;;;70.57;66.93;;;;;;;15.04;100.00;101572.71;1991642;71;32803;-74
2022/03/10 13:17:45;;;;;;;58.83;55.47;;;;;;;14.78;100.00;101564.89;2002136;71;32846;-72
2022/03/10 13:23:30;;;;;;;61.90;58.60;;;;;;;14.63;100.00;101563.66;2018710;71;33512;-74
2022/03/10 13:29:17;;;;;;;54.97;52.07;;;;;;;15.08;100.00;101547.76;2004552;71;32805;-76
2022/03/10 13:35:05;;;;;;;51.30;48.40;;;;;;;15.23;100.00;101544.75;2011389;71;32895;-75
2022/03/10 13:40:51;;;;;;;51.13;48.53;;;;;;;15.48;100.00;101531.84;1998993;71;32748;-76
2022/03/10 13:46:39;;;;;;;48.53;46.03;;;;;;;15.40;100.00;101521.30;2007611;71;32818;-72
2022/03/10 13:52:34;;;;;;;45.20;42.70;;;;;;;15.35;100.00;101497.59;2000171;71;32836;-73
2022/03/10 13:58:24;;;;;;;44.80;42.20;;;;;;;15.44;100.00;101491.59;2000363;71;32963;-72
2022/03/10 14:04:18;;;;;;;45.23;42.70;;;;;;;15.37;100.00;101489.70;2016511;71;32903;-75
2022/03/10 14:10:06;;;;;;;44.53;42.13;;;;;;;15.47;100.00;101478.94;1995270;71;33330;-72
2022/03/10 14:15:54;;;;;;;45.57;43.17;;;;;;;15.41;100.00;101479.56;2004033;70;33031;-75
2022/03/10 14:21:42;;;;;;;41.13;38.93;;;;;;;15.57;100.00;101470.42;2011161;71;33360;-74
2022/03/10 14:27:27;;;;;;;43.80;41.20;;;;;;;15.29;100.00;101459.59;2002475;70;32854;-73
2022/03/10 14:33:12;;;;;;;41.70;39.47;;;;;;;15.56;100.00;101451.95;2011915;71;32830;-74
2022/03/10 14:38:56;;;;;;;43.00;40.67;;;;;;;15.65;100.00;101453.50;1991499;71;33315;-74
2022/03/10 14:44:42;;;;;;;41.33;39.13;;;;;;;15.58;100.00;101440.42;2014982;71;32830;-74
2022/03/10 14:50:28;;;;;;;41.50;39.00;;;;;;;15.61;100.00;101438.44;2005704;71;33329;-76
2022/03/10 14:56:13;;;;;;;40.23;37.97;;;;;;;15.67;100.00;101431.59;2000686;71;32816;-74
2022/03/10 15:01:57;;;;;;;41.13;38.73;;;;;;;15.58;100.00;101427.26;1998701;70;32966;-76
2022/03/10 15:07:43;;;;;;;38.47;36.20;;;;;;;15.63;100.00;101429.14;1991632;71;32844;-75
2022/03/10 15:13:28;;;;;;;36.83;34.83;;;;;;;15.57;100.00;101421.98;2014928;71;32816;-74
2022/03/10 15:19:13;;;;;;;37.50;35.30;;;;;;;15.64;100.00;101423.25;1991464;71;32748;-75
2022/03/10 15:24:57;;;;;;;38.33;36.20;;;;;;;15.77;100.00;101410.44;2005407;71;32792;-74
2022/03/10 15:30:42;;;;;;;38.77;36.57;;;;;;;15.73;100.00;101405.18;2004022;71;33318;-73
2022/03/10 15:36:27;;;;;;;38.47;36.27;;;;;;;15.73;100.00;101404.61;2010057;71;32760;-75
2022/03/10 15:42:11;;;;;;;40.23;37.83;;;;;;;15.56;100.00;101407.14;2004899;71;32748;-73
2022/03/10 15:48:02;;;;;;;39.10;36.90;;;;;;;15.47;100.00;101391.58;1997060;71;33224;-70
2022/03/10 15:53:46;;;;;;;40.57;38.27;;;;;;;15.53;100.00;101392.36;2016634;71;32982;-71
2022/03/10 15:59:30;;;;;;;41.23;38.83;;;;;;;15.39;100.00;101379.67;1997025;71;32845;-74
2022/03/10 16:05:16;;;;;;;39.40;37.20;;;;;;;15.34;100.00;101395.71;1968266;72;32859;-71
2022/03/10 16:11:01;;;;;;;40.90;38.60;;;;;;;15.08;100.00;101392.46;2016445;71;32828;-71
2022/03/10 16:16:45;;;;;;;38.77;36.57;;;;;;;15.02;100.00;101381.91;2017053;71;33285;-68
2022/03/10 16:22:30;;;;;;;40.20;38.00;;;;;;;14.90;100.00;101384.88;2002310;71;32750;-73
2022/03/10 16:28:14;;;;;;;41.97;39.60;;;;;;;14.74;100.00;101375.05;2016624;71;32908;-68
2022/03/10 16:33:58;;;;;;;43.00;40.50;;;;;;;14.64;100.00;101375.17;2002611;71;32786;-75
2022/03/10 16:39:43;;;;;;;46.87;44.20;;;;;;;14.62;100.00;101375.48;2011229;71;32987;-77
2022/03/10 16:45:27;;;;;;;47.60;44.80;;;;;;;14.49;100.00;101373.42;1995228;71;32787;-70
2022/03/10 16:51:12;;;;;;;49.47;46.67;;;;;;;14.42;100.00;101375.16;2016898;71;32900;-76
2022/03/10 16:56:56;;;;;;;49.80;46.77;;;;;;;14.38;100.00;101384.44;1998537;71;32845;-71
2022/03/10 17:02:41;;;;;;;51.13;48.20;;;;;;;14.30;100.00;101381.70;2009379;71;32904;-78
2022/03/10 17:08:26;;;;;;;50.10;47.30;;;;;;;14.26;100.00;101379.80;2011620;71;32869;-72
2022/03/10 17:14:10;;;;;;;50.33;47.43;;;;;;;14.19;100.00;101378.77;2003915;71;32980;-73
2022/03/10 17:19:55;;;;;;;47.90;45.20;;;;;;;14.20;100.00;101372.06;2016550;71;32834;-71
2022/03/10 17:25:42;;;;;;;49.10;46.43;;;;;;;14.22;100.00;101382.92;2000507;71;32775;-71
2022/03/10 17:31:28;;;;;;;48.30;45.50;;;;;;;14.23;100.00;101379.01;2003771;70;32848;-74
2022/03/10 17:37:13;;;;;;;51.70;48.70;;;;;;;14.11;100.00;101376.08;1995078;70;32847;-75
2022/03/10 17:42:57;;;;;;;53.27;50.17;;;;;;;14.06;100.00;101376.13;2003816;71;33394;-68
2022/03/10 17:48:42;;;;;;;52.37;49.17;;;;;;;14.03;100.00;101368.91;2002587;71;32841;-73
2022/03/10 17:54:27;;;;;;;51.50;48.50;;;;;;;14.04;100.00;101371.94;2016797;71;32820;-75
2022/03/10 18:00:15;;;;;;;52.27;48.80;;;;;;;13.99;100.00;101366.44;2016868;71;33411;-72
2022/03/10 18:05:59;;;;;;;55.67;52.53;;;;;;;13.99;100.00;101369.23;2006157;70;32767;-73
2022/03/10 18:11:43;;;;;;;55.33;52.03;;;;;;;13.97;100.00;101367.28;1997000;70;33489;-71
2022/03/10 18:17:28;;;;;;;56.20;52.70;;;;;;;13.92;100.00;101360.34;1998469;71;33006;-72
2022/03/10 18:23:16;;;;;;;56.73;53.33;;;;;;;13.94;100.00;101360.33;2003453;70;32927;-71
2022/03/10 18:29:00;;;;;;;58.20;54.90;;;;;;;13.87;100.00;101356.20;2009569;71;33386;-69
2022/03/10 18:34:44;;;;;;;56.27;52.97;;;;;;;13.89;100.00;101359.55;2014886;71;32887;-68
2022/03/10 18:40:29;;;;;;;58.07;54.57;;;;;;;13.88;100.00;101346.70;2007657;71;32804;-73
2022/03/10 18:46:14;;;;;;;57.50;53.80;;;;;;;13.88;100.00;101349.49;1991458;71;33277;-73
2022/03/10 18:51:59;;;;;;;55.53;52.23;;;;;;;13.88;100.00;101341.12;2016733;71;32809;-75
2022/03/10 18:57:44;;;;;;;58.83;55.43;;;;;;;13.74;100.00;101341.53;1991515;71;32815;-73
2022/03/10 19:03:30;;;;;;;59.97;56.40;;;;;;;13.74;100.00;101340.14;2016765;71;33293;-74
2022/03/10 19:09:14;;;;;;;62.47;58.77;;;;;;;13.79;100.00;101334.50;2015210;71;32899;-76
2022/03/10 19:14:59;;;;;;;63.50;59.50;;;;;;;13.69;100.00;101323.70;2000912;71;32800;-76
2022/03/10 19:20:43;;;;;;;64.50;60.30;;;;;;;13.68;100.00;101313.69;1991712;71;32745;-76
2022/03/10 19:26:28;;;;;;;60.50;57.00;;;;;;;13.66;100.00;101310.34;2018442;71;33382;-73
2022/03/10 19:32:12;;;;;;;63.17;59.37;;;;;;;13.62;100.00;101308.44;2011780;70;32750;-71
2022/03/10 19:37:56;;;;;;;63.13;59.13;;;;;;;13.60;100.00;101303.73;1997300;71;32729;-75
2022/03/10 19:43:41;;;;;;;63.40;59.53;;;;;;;13.55;100.00;101293.45;2016934;71;32918;-76
2022/03/10 19:49:25;;;;;;;64.23;60.43;;;;;;;13.57;100.00;101290.34;2007794;71;32901;-76
2022/03/10 19:55:12;;;;;;;64.77;60.60;;;;;;;13.54;100.00;101283.40;2016886;71;32968;-76
2022/03/10 20:00:56;;;;;;;64.17;60.13;;;;;;;13.58;100.00;101290.61;2016804;71;33296;-72
2022/03/10 20:06:40;;;;;;;64.37;60.53;;;;;;;13.58;100.00;101289.22;2007680;70;32968;-68
2022/03/10 20:12:24;;;;;;;67.20;63.00;;;;;;;13.55;100.00;101287.86;2015037;71;32869;-73
2022/03/10 20:18:11;;;;;;;68.17;63.80;;;;;;;13.46;100.00;101280.41;2016868;71;33375;-71
2022/03/10 20:23:56;;;;;;;68.87;64.60;;;;;;;13.46;100.00;101274.27;2011316;71;33376;-71
2022/03/10 20:29:41;;;;;;;71.20;66.70;;;;;;;13.43;100.00;101274.03;2005844;71;33263;-74
2022/03/10 20:35:25;;;;;;;69.37;65.17;;;;;;;13.41;100.00;101253.95;2004443;71;33287;-74
2022/03/10 20:41:11;;;;;;;74.63;69.93;;;;;;;13.45;100.00;101245.25;2014801;71;32893;-76
2022/03/10 20:46:55;;;;;;;75.27;70.60;;;;;;;13.42;100.00;101243.90;2002228;71;32890;-77
2022/03/10 20:52:39;;;;;;;74.70;69.73;;;;;;;13.37;100.00;101243.94;1997057;71;32772;-73
2022/03/10 20:58:25;;;;;;;77.37;72.50;;;;;;;13.32;100.00;101237.02;2009206;71;32904;-77
2022/03/10 21:04:09;;;;;;;74.90;70.30;;;;;;;13.32;100.00;101231.98;2014645;71;32998;-76
2022/03/10 21:09:54;;;;;;;74.17;69.60;;;;;;;13.26;100.00;101223.42;2015113;70;32924;-75
2022/03/10 21:15:38;;;;;;;78.00;73.10;;;;;;;13.34;100.00;101218.59;2003751;71;32956;-72
2022/03/10 21:21:22;;;;;;;77.77;73.07;;;;;;;13.20;100.00;101209.52;2012989;71;32831;-70
2022/03/10 21:27:06;;;;;;;77.73;72.63;;;;;;;13.05;100.00;101203.23;2014959;71;33363;-75
2022/03/10 21:32:51;;;;;;;80.27;75.13;;;;;;;12.94;100.00;101198.30;2006451;71;32808;-77
2022/03/10 21:38:35;;;;;;;79.00;74.00;;;;;;;12.95;100.00;101183.80;1995494;70;32884;-76
2022/03/10 21:44:20;;;;;;;80.30;75.00;;;;;;;12.92;100.00;101176.83;2006241;71;32858;-77
2022/03/10 21:50:06;;;;;;;80.23;75.13;;;;;;;12.94;100.00;101175.16;2013276;71;32962;-76
2022/03/10 21:55:50;;;;;;;83.73;78.73;;;;;;;12.98;100.00;101170.66;2009364;71;32818;-79
2022/03/10 22:01:35;;;;;;;81.73;76.47;;;;;;;12.96;100.00;101177.10;2013417;71;33025;-77
2022/03/10 22:07:19;;;;;;;83.67;78.33;;;;;;;12.88;100.00;101171.57;2017065;71;33020;-77
2022/03/10 22:13:04;;;;;;;81.90;76.70;;;;;;;12.89;100.00;101163.48;2000494;71;32899;-79
2022/03/10 22:18:48;;;;;;;83.23;77.80;;;;;;;12.87;100.00;101149.02;2012962;71;32817;-72
2022/03/10 22:24:33;;;;;;;84.63;79.20;;;;;;;12.89;100.00;101146.75;2000148;71;32956;-72
2022/03/10 22:30:17;;;;;;;85.23;79.63;;;;;;;12.72;100.00;101126.28;1998431;71;33352;-71
2022/03/10 22:36:02;;;;;;;85.50;79.80;;;;;;;12.77;100.00;101123.45;2015158;71;32827;-76
2022/03/10 22:41:46;;;;;;;88.20;82.80;;;;;;;12.77;100.00;101122.63;2008496;71;33373;-77
2022/03/10 22:47:31;;;;;;;83.67;78.17;;;;;;;12.65;100.00;101113.82;1995473;71;32728;-76
2022/03/10 22:59:19;;;;;;;86.80;81.07;;;;;;;12.76;100.00;101098.66;2018526;71;32820;-72
2022/03/10 23:11:05;;;;;;;85.13;79.47;;;;;;;12.72;100.00;101076.67;1909139;70;33110;-76
2022/03/10 23:16:49;;;;;;;84.33;78.60;;;;;;;12.73;100.00;101069.42;1995364;71;32832;-76
2022/03/10 23:22:33;;;;;;;83.63;78.13;;;;;;;12.74;100.00;101057.16;2016802;71;32852;-76
2022/03/10 23:28:20;;;;;;;85.50;80.10;;;;;;;12.71;100.00;101054.94;2009684;71;32886;-76
2022/03/10 23:34:04;;;;;;;87.80;82.20;;;;;;;12.60;100.00;101031.66;2011343;71;33300;-76
2022/03/10 23:39:48;;;;;;;86.53;80.73;;;;;;;12.55;100.00;101029.75;2011292;71;32892;-75
2022/03/10 23:45:33;;;;;;;86.90;81.13;;;;;;;12.41;100.00;101027.37;2002629;71;32783;-76
2022/03/10 23:51:18;;;;;;;84.00;78.63;;;;;;;12.54;100.00;101018.89;2016902;71;32812;-76
2022/03/10 23:57:03;;;;;;;83.73;78.33;;;;;;;12.64;100.00;101024.36;2018622;70;32919;-76
